Sakun'Ja, Russia
Current Conditions -  °F | °C
As of 12:00 AM on Monday 24 Nov 2014 (Local Time) from UWKS Reporting Station
Clear Clear  
Wind Chill: -5°   Ceiling: Unl
Heat Index:   Visibility: 6mi
Dew Point:   Wind: 7mph
Humidity: 85%   Direction: 50°NE
Pressure: 30.68"   Gusts: NA
Location:  57.67°N, 46.63°E
Report Text: UWKS 232100Z 05003MPS CAVOK M14/M16 Q1039 NOSIG RMK QFE76406420158
Loading
Personal Weather Stations






























Interactive Weather Map New forecast layout! Learn more

10-Day Weather Forecast

Advertisements
Track Severe Weather on mobile